sensor_id;sensor_type;location;lat;lon;timestamp;pressure;altitude;pressure_sealevel;temperature;humidity
34921;BME280;21128;50.016;20.002;2023-03-04T00:01:11;98942.67;;;-0.86;100.00
34921;BME280;21128;50.016;20.002;2023-03-04T00:03:42;98952.88;;;-0.82;100.00
34921;BME280;21128;50.016;20.002;2023-03-04T00:06:09;98946.81;;;-0.81;100.00
34921;BME280;21128;50.016;20.002;2023-03-04T00:08:36;98944.98;;;-0.79;100.00
34921;BME280;21128;50.016;20.002;2023-03-04T00:11:03;98934.59;;;-0.78;100.00
34921;BME280;21128;50.016;20.002;2023-03-04T00:13:31;98925.11;;;-0.77;100.00
34921;BME280;21128;50.016;20.002;2023-03-04T00:15:58;98929.31;;;-0.75;100.00
34921;BME280;21128;50.016;20.002;2023-03-04T00:18:29;98927.61;;;-0.76;100.00
34921;BME280;21128;50.016;20.002;2023-03-04T00:20:56;98932.09;;;-0.79;100.00
34921;BME280;21128;50.016;20.002;2023-03-04T00:23:23;98914.94;;;-0.80;100.00
34921;BME280;21128;50.016;20.002;2023-03-04T00:25:51;98917.59;;;-0.82;100.00
34921;BME280;21128;50.016;20.002;2023-03-04T00:28:18;98909.02;;;-0.82;100.00
34921;BME280;21128;50.016;20.002;2023-03-04T00:30:45;98900.44;;;-0.83;100.00
34921;BME280;21128;50.016;20.002;2023-03-04T00:33:13;98901.13;;;-0.79;100.00
34921;BME280;21128;50.016;20.002;2023-03-04T00:35:41;98887.47;;;-0.81;100.00
34921;BME280;21128;50.016;20.002;2023-03-04T00:38:08;98889.97;;;-0.80;100.00
34921;BME280;21128;50.016;20.002;2023-03-04T00:40:35;98889.14;;;-0.80;100.00
34921;BME280;21128;50.016;20.002;2023-03-04T00:43:03;98884.12;;;-0.83;100.00
34921;BME280;21128;50.016;20.002;2023-03-04T00:45:30;98876.39;;;-0.83;100.00
34921;BME280;21128;50.016;20.002;2023-03-04T00:48:00;98863.53;;;-0.85;100.00
34921;BME280;21128;50.016;20.002;2023-03-04T00:50:27;98865.28;;;-0.86;100.00
34921;BME280;21128;50.016;20.002;2023-03-04T00:52:54;98856.70;;;-0.86;100.00
34921;BME280;21128;50.016;20.002;2023-03-04T00:55:25;98864.32;;;-0.83;100.00
34921;BME280;21128;50.016;20.002;2023-03-04T00:57:52;98852.11;;;-0.79;100.00
34921;BME280;21128;50.016;20.002;2023-03-04T01:00:20;98850.28;;;-0.77;100.00
34921;BME280;21128;50.016;20.002;2023-03-04T01:02:49;98844.21;;;-0.76;100.00
34921;BME280;21128;50.016;20.002;2023-03-04T01:05:17;98827.89;;;-0.77;100.00
34921;BME280;21128;50.016;20.002;2023-03-04T01:07:44;98837.38;;;-0.77;100.00
34921;BME280;21128;50.016;20.002;2023-03-04T01:10:13;98833.97;;;-0.78;100.00
34921;BME280;21128;50.016;20.002;2023-03-04T01:12:41;98827.22;;;-0.80;100.00
34921;BME280;21128;50.016;20.002;2023-03-04T01:15:11;98814.31;;;-0.80;100.00
34921;BME280;21128;50.016;20.002;2023-03-04T01:17:39;98803.23;;;-0.82;100.00
34921;BME280;21128;50.016;20.002;2023-03-04T01:20:08;98800.66;;;-0.82;100.00
34921;BME280;21128;50.016;20.002;2023-03-04T01:22:36;98805.82;;;-0.82;100.00
34921;BME280;21128;50.016;20.002;2023-03-04T01:25:04;98798.91;;;-0.82;100.00
34921;BME280;21128;50.016;20.002;2023-03-04T01:27:34;98802.33;;;-0.81;100.00
34921;BME280;21128;50.016;20.002;2023-03-04T01:30:02;98789.27;;;-0.78;100.00
34921;BME280;21128;50.016;20.002;2023-03-04T01:32:29;98784.95;;;-0.78;100.00
34921;BME280;21128;50.016;20.002;2023-03-04T01:35:00;98780.55;;;-0.76;100.00
34921;BME280;21128;50.016;20.002;2023-03-04T01:37:27;98797.72;;;-0.75;100.00
34921;BME280;21128;50.016;20.002;2023-03-04T01:39:54;98770.17;;;-0.74;100.00
34921;BME280;21128;50.016;20.002;2023-03-04T01:42:23;98766.68;;;-0.73;100.00
34921;BME280;21128;50.016;20.002;2023-03-04T01:44:52;98770.02;;;-0.71;100.00
34921;BME280;21128;50.016;20.002;2023-03-04T01:47:28;98760.53;;;-0.71;100.00
34921;BME280;21128;50.016;20.002;2023-03-04T01:49:57;98762.12;;;-0.68;100.00
34921;BME280;21128;50.016;20.002;2023-03-04T01:52:27;98767.23;;;-0.67;100.00
34921;BME280;21128;50.016;20.002;2023-03-04T01:54:54;98757.74;;;-0.66;100.00
34921;BME280;21128;50.016;20.002;2023-03-04T01:57:25;98772.23;;;-0.64;100.00
34921;BME280;21128;50.016;20.002;2023-03-04T02:00:17;98758.34;;;-0.61;100.00
34921;BME280;21128;50.016;20.002;2023-03-04T02:02:47;98758.34;;;-0.61;100.00
34921;BME280;21128;50.016;20.002;2023-03-04T02:05:16;98754.80;;;-0.59;100.00
34921;BME280;21128;50.016;20.002;2023-03-04T02:07:43;98758.96;;;-0.56;100.00
34921;BME280;21128;50.016;20.002;2023-03-04T02:10:11;98751.97;;;-0.54;100.00
34921;BME280;21128;50.016;20.002;2023-03-04T02:12:39;98757.13;;;-0.54;100.00
34921;BME280;21128;50.016;20.002;2023-03-04T02:15:07;98748.55;;;-0.54;100.00
34921;BME280;21128;50.016;20.002;2023-03-04T02:17:36;98744.98;;;-0.52;100.00
34921;BME280;21128;50.016;20.002;2023-03-04T02:22:50;98741.48;;;-0.51;100.00
34921;BME280;21128;50.016;20.002;2023-03-04T02:25:28;98737.86;;;-0.47;100.00
34921;BME280;21128;50.016;20.002;2023-03-04T02:27:57;98738.77;;;-0.48;100.00
34921;BME280;21128;50.016;20.002;2023-03-04T02:30:24;98737.94;;;-0.48;100.00
34921;BME280;21128;50.016;20.002;2023-03-04T02:32:52;98751.68;;;-0.48;100.00
34921;BME280;21128;50.016;20.002;2023-03-04T02:35:20;98734.52;;;-0.49;100.00
34921;BME280;21128;50.016;20.002;2023-03-04T02:37:47;98736.19;;;-0.48;100.00
34921;BME280;21128;50.016;20.002;2023-03-04T02:40:26;98723.28;;;-0.48;100.00
34921;BME280;21128;50.016;20.002;2023-03-04T02:42:58;98722.38;;;-0.47;100.00
34921;BME280;21128;50.016;20.002;2023-03-04T02:48:04;98705.05;;;-0.45;100.00
34921;BME280;21128;50.016;20.002;2023-03-04T02:50:35;98714.55;;;-0.45;100.00
34921;BME280;21128;50.016;20.002;2023-03-04T02:53:03;98713.71;;;-0.46;100.00
34921;BME280;21128;50.016;20.002;2023-03-04T02:55:31;98702.63;;;-0.48;100.00
34921;BME280;21128;50.016;20.002;2023-03-04T02:57:58;98706.88;;;-0.47;100.00
34921;BME280;21128;50.016;20.002;2023-03-04T03:00:26;98692.23;;;-0.46;100.00
34921;BME280;21128;50.016;20.002;2023-03-04T03:02:54;98687.06;;;-0.46;100.00
34921;BME280;21128;50.016;20.002;2023-03-04T03:05:27;98684.40;;;-0.45;100.00
34921;BME280;21128;50.016;20.002;2023-03-04T03:07:55;98678.41;;;-0.45;100.00
34921;BME280;21128;50.016;20.002;2023-03-04T03:10:22;98679.23;;;-0.45;100.00
34921;BME280;21128;50.016;20.002;2023-03-04T03:12:50;98674.23;;;-0.48;100.00
34921;BME280;21128;50.016;20.002;2023-03-04T03:15:18;98675.08;;;-0.47;100.00
34921;BME280;21128;50.016;20.002;2023-03-04T03:17:46;98693.06;;;-0.46;100.00
34921;BME280;21128;50.016;20.002;2023-03-04T03:20:14;98676.73;;;-0.46;100.00
34921;BME280;21128;50.016;20.002;2023-03-04T03:22:44;98681.82;;;-0.45;100.00
34921;BME280;21128;50.016;20.002;2023-03-04T03:25:13;98668.91;;;-0.45;100.00
34921;BME280;21128;50.016;20.002;2023-03-04T03:27:44;98661.17;;;-0.45;100.00
34921;BME280;21128;50.016;20.002;2023-03-04T03:30:12;98669.75;;;-0.44;100.00
34921;BME280;21128;50.016;20.002;2023-03-04T03:32:40;98664.58;;;-0.44;100.00
34921;BME280;21128;50.016;20.002;2023-03-04T03:35:08;98664.58;;;-0.44;100.00
34921;BME280;21128;50.016;20.002;2023-03-04T03:37:36;98672.24;;;-0.43;100.00
34921;BME280;21128;50.016;20.002;2023-03-04T03:40:03;98666.20;;;-0.42;100.00
34921;BME280;21128;50.016;20.002;2023-03-04T03:42:30;98680.77;;;-0.41;100.00
34921;BME280;21128;50.016;20.002;2023-03-04T03:44:58;98671.36;;;-0.42;100.00
34921;BME280;21128;50.016;20.002;2023-03-04T03:47:27;98674.69;;;-0.40;100.00
34921;BME280;21128;50.016;20.002;2023-03-04T03:49:57;98675.52;;;-0.39;100.00
34921;BME280;21128;50.016;20.002;2023-03-04T03:52:25;98671.94;;;-0.37;100.00
34921;BME280;21128;50.016;20.002;2023-03-04T03:54:52;98682.27;;;-0.37;100.00
34921;BME280;21128;50.016;20.002;2023-03-04T03:57:19;98685.69;;;-0.36;100.00
34921;BME280;21128;50.016;20.002;2023-03-04T03:59:49;98666.78;;;-0.37;100.00
34921;BME280;21128;50.016;20.002;2023-03-04T04:02:16;98660.78;;;-0.37;100.00
34921;BME280;21128;50.016;20.002;2023-03-04T04:04:43;98672.11;;;-0.40;100.00
34921;BME280;21128;50.016;20.002;2023-03-04T04:07:10;98675.61;;;-0.41;100.00
34921;BME280;21128;50.016;20.002;2023-03-04T04:09:38;98681.69;;;-0.42;100.00
34921;BME280;21128;50.016;20.002;2023-03-04T04:12:05;98676.52;;;-0.42;100.00
34921;BME280;21128;50.016;20.002;2023-03-04T04:14:36;98671.36;;;-0.42;100.00
34921;BME280;21128;50.016;20.002;2023-03-04T04:17:03;98663.61;;;-0.42;100.00
34921;BME280;21128;50.016;20.002;2023-03-04T04:19:30;98672.24;;;-0.43;100.00
34921;BME280;21128;50.016;20.002;2023-03-04T04:22:01;98655.92;;;-0.43;100.00
34921;BME280;21128;50.016;20.002;2023-03-04T04:24:29;98653.34;;;-0.43;100.00
34921;BME280;21128;50.016;20.002;2023-03-04T04:26:56;98652.59;;;-0.45;100.00
34921;BME280;21128;50.016;20.002;2023-03-04T04:29:23;98648.43;;;-0.48;100.00
34921;BME280;21128;50.016;20.002;2023-03-04T04:31:51;98651.14;;;-0.51;100.00
34921;BME280;21128;50.016;20.002;2023-03-04T04:34:18;98657.22;;;-0.52;100.00
34921;BME280;21128;50.016;20.002;2023-03-04T04:36:48;98659.97;;;-0.55;100.00
34921;BME280;21128;50.016;20.002;2023-03-04T04:39:15;98659.22;;;-0.57;100.00
34921;BME280;21128;50.016;20.002;2023-03-04T04:41:43;98652.39;;;-0.58;100.00
34921;BME280;21128;50.016;20.002;2023-03-04T04:44:14;98663.68;;;-0.61;100.00
34921;BME280;21128;50.016;20.002;2023-03-04T04:46:41;98655.11;;;-0.61;100.00
34921;BME280;21128;50.016;20.002;2023-03-04T04:49:11;98652.61;;;-0.63;100.00
34921;BME280;21128;50.016;20.002;2023-03-04T04:51:41;98651.78;;;-0.63;100.00
34921;BME280;21128;50.016;20.002;2023-03-04T04:54:09;98643.28;;;-0.65;100.00
34921;BME280;21128;50.016;20.002;2023-03-04T04:56:39;98634.80;;;-0.67;100.00
34921;BME280;21128;50.016;20.002;2023-03-04T04:59:07;98640.00;;;-0.69;100.00
34921;BME280;21128;50.016;20.002;2023-03-04T05:01:35;98641.00;;;-0.71;100.00
34921;BME280;21128;50.016;20.002;2023-03-04T05:04:05;98649.73;;;-0.74;100.00
34921;BME280;21128;50.016;20.002;2023-03-04T05:06:32;98642.00;;;-0.74;100.00
34921;BME280;21128;50.016;20.002;2023-03-04T05:09:01;98642.91;;;-0.75;100.00
34921;BME280;21128;50.016;20.002;2023-03-04T05:11:30;98632.64;;;-0.76;100.00
34921;BME280;21128;50.016;20.002;2023-03-04T05:13:57;98636.01;;;-0.74;100.00
34921;BME280;21128;50.016;20.002;2023-03-04T05:16:24;98643.80;;;-0.76;100.00
34921;BME280;21128;50.016;20.002;2023-03-04T05:18:54;98639.50;;;-0.75;100.00
34921;BME280;21128;50.016;20.002;2023-03-04T05:21:21;98637.67;;;-0.73;100.00
34921;BME280;21128;50.016;20.002;2023-03-04T05:23:51;98638.64;;;-0.76;100.00
34921;BME280;21128;50.016;20.002;2023-03-04T05:26:18;98634.34;;;-0.75;100.00
34921;BME280;21128;50.016;20.002;2023-03-04T05:28:48;98637.80;;;-0.76;100.00
34921;BME280;21128;50.016;20.002;2023-03-04T05:31:16;98637.89;;;-0.78;100.00
34921;BME280;21128;50.016;20.002;2023-03-04T05:33:44;98632.81;;;-0.79;100.00
34921;BME280;21128;50.016;20.002;2023-03-04T05:36:11;98633.72;;;-0.80;100.00
34921;BME280;21128;50.016;20.002;2023-03-04T05:38:38;98634.64;;;-0.81;100.00
34921;BME280;21128;50.016;20.002;2023-03-04T05:41:06;98630.31;;;-0.81;100.00
34921;BME280;21128;50.016;20.002;2023-03-04T05:43:34;98628.65;;;-0.82;100.00
34921;BME280;21128;50.016;20.002;2023-03-04T05:46:04;98633.80;;;-0.82;100.00
34921;BME280;21128;50.016;20.002;2023-03-04T05:48:31;98628.78;;;-0.85;100.00
34921;BME280;21128;50.016;20.002;2023-03-04T05:51:01;98623.70;;;-0.87;100.00
34921;BME280;21128;50.016;20.002;2023-03-04T05:53:32;98618.62;;;-0.88;100.00
34921;BME280;21128;50.016;20.002;2023-03-04T05:55:59;98617.04;;;-0.91;100.00
34921;BME280;21128;50.016;20.002;2023-03-04T05:58:26;98618.84;;;-0.93;100.00
34921;BME280;21128;50.016;20.002;2023-03-04T06:00:53;98620.66;;;-0.95;100.00
34921;BME280;21128;50.016;20.002;2023-03-04T06:03:24;98610.51;;;-0.98;100.00
34921;BME280;21128;50.016;20.002;2023-03-04T06:05:52;98602.77;;;-0.98;100.00
34921;BME280;21128;50.016;20.002;2023-03-04T06:08:22;98611.18;;;-0.94;100.00
34921;BME280;21128;50.016;20.002;2023-03-04T06:10:52;98614.59;;;-0.94;100.00
34921;BME280;21128;50.016;20.002;2023-03-04T06:13:20;98608.60;;;-0.94;100.00
34921;BME280;21128;50.016;20.002;2023-03-04T06:15:55;98617.12;;;-0.92;100.00
34921;BME280;21128;50.016;20.002;2023-03-04T06:18:24;98624.61;;;-0.88;100.00
34921;BME280;21128;50.016;20.002;2023-03-04T06:20:56;98626.15;;;-0.83;100.00
34921;BME280;21128;50.016;20.002;2023-03-04T06:23:24;98615.83;;;-0.83;100.00
34921;BME280;21128;50.016;20.002;2023-03-04T06:25:53;98616.66;;;-0.83;100.00
34921;BME280;21128;50.016;20.002;2023-03-04T06:28:21;98621.73;;;-0.81;100.00
34921;BME280;21128;50.016;20.002;2023-03-04T06:30:51;98619.24;;;-0.83;100.00
34921;BME280;21128;50.016;20.002;2023-03-04T06:33:19;98634.85;;;-0.86;100.00
34921;BME280;21128;50.016;20.002;2023-03-04T06:35:46;98628.78;;;-0.85;100.00
34921;BME280;21128;50.016;20.002;2023-03-04T06:38:13;98627.11;;;-0.86;100.00
34921;BME280;21128;50.016;20.002;2023-03-04T06:40:43;98628.11;;;-0.89;100.00
34921;BME280;21128;50.016;20.002;2023-03-04T06:43:14;98625.53;;;-0.89;100.00
34921;BME280;21128;50.016;20.002;2023-03-04T06:45:41;98628.86;;;-0.87;100.00
34921;BME280;21128;50.016;20.002;2023-03-04T06:48:09;98620.45;;;-0.90;100.00
34921;BME280;21128;50.016;20.002;2023-03-04T06:50:39;98633.43;;;-0.92;100.00
34921;BME280;21128;50.016;20.002;2023-03-04T06:53:07;98622.20;;;-0.91;100.00
34921;BME280;21128;50.016;20.002;2023-03-04T06:55:34;98616.26;;;-0.93;100.00
34921;BME280;21128;50.016;20.002;2023-03-04T06:58:02;98620.08;;;-1.00;100.00
34921;BME280;21128;50.016;20.002;2023-03-04T07:00:29;98621.13;;;-1.04;100.00
34921;BME280;21128;50.016;20.002;2023-03-04T07:02:57;98621.04;;;-1.02;100.00
34921;BME280;21128;50.016;20.002;2023-03-04T07:05:25;98608.39;;;-1.07;100.00
34921;BME280;21128;50.016;20.002;2023-03-04T07:07:55;98623.98;;;-1.10;100.00
34921;BME280;21128;50.016;20.002;2023-03-04T07:10:22;98619.83;;;-1.12;100.00
34921;BME280;21128;50.016;20.002;2023-03-04T07:12:49;98628.47;;;-1.14;100.00
34921;BME280;21128;50.016;20.002;2023-03-04T07:15:16;98604.35;;;-1.12;100.00
34921;BME280;21128;50.016;20.002;2023-03-04T07:17:46;98627.48;;;-1.11;100.00
34921;BME280;21128;50.016;20.002;2023-03-04T07:20:14;98636.96;;;-1.11;100.00
34921;BME280;21128;50.016;20.002;2023-03-04T07:22:43;98630.84;;;-1.09;100.00
34921;BME280;21128;50.016;20.002;2023-03-04T07:25:11;98643.11;;;-1.14;100.00
34921;BME280;21128;50.016;20.002;2023-03-04T07:27:38;98633.80;;;-1.17;100.00
34921;BME280;21128;50.016;20.002;2023-03-04T07:30:07;98638.99;;;-1.18;100.00
34921;BME280;21128;50.016;20.002;2023-03-04T07:32:35;98644.16;;;-1.18;100.00
34921;BME280;21128;50.016;20.002;2023-03-04T07:35:02;98662.20;;;-1.18;100.00
34921;BME280;21128;50.016;20.002;2023-03-04T07:37:30;98657.91;;;-1.18;100.00
34921;BME280;21128;50.016;20.002;2023-03-04T07:39:57;98656.84;;;-1.14;100.00
34921;BME280;21128;50.016;20.002;2023-03-04T07:42:24;98654.94;;;-1.10;100.00
34921;BME280;21128;50.016;20.002;2023-03-04T07:44:51;98650.56;;;-1.08;100.00
34921;BME280;21128;50.016;20.002;2023-03-04T07:47:19;98659.13;;;-1.07;100.00
34921;BME280;21128;50.016;20.002;2023-03-04T07:49:46;98669.28;;;-1.04;100.00
34921;BME280;21128;50.016;20.002;2023-03-04T07:52:13;98675.28;;;-1.04;100.00
34921;BME280;21128;50.016;20.002;2023-03-04T07:54:40;98666.63;;;-1.03;100.00
34921;BME280;21128;50.016;20.002;2023-03-04T07:57:07;98669.36;;;-1.06;100.00
34921;BME280;21128;50.016;20.002;2023-03-04T07:59:35;98661.47;;;-1.03;100.00
34921;BME280;21128;50.016;20.002;2023-03-04T08:02:02;98665.72;;;-1.02;100.00
34921;BME280;21128;50.016;20.002;2023-03-04T08:04:29;98670.88;;;-1.02;100.00
34921;BME280;21128;50.016;20.002;2023-03-04T08:06:56;98670.83;;;-1.00;100.00
34921;BME280;21128;50.016;20.002;2023-03-04T08:09:24;98686.50;;;-1.05;100.00
34921;BME280;21128;50.016;20.002;2023-03-04T08:11:51;98681.42;;;-1.06;100.00
34921;BME280;21128;50.016;20.002;2023-03-04T08:14:18;98672.78;;;-1.05;100.00
34921;BME280;21128;50.016;20.002;2023-03-04T08:16:45;98676.94;;;-1.03;100.00
34921;BME280;21128;50.016;20.002;2023-03-04T08:19:12;98675.15;;;-1.01;100.00
34921;BME280;21128;50.016;20.002;2023-03-04T08:21:43;98688.09;;;-1.02;100.00
34921;BME280;21128;50.016;20.002;2023-03-04T08:24:13;98661.70;;;-1.07;100.00
34921;BME280;21128;50.016;20.002;2023-03-04T08:26:45;98680.59;;;-1.07;100.00
34921;BME280;21128;50.016;20.002;2023-03-04T08:29:19;98685.67;;;-1.05;100.00
34921;BME280;21128;50.016;20.002;2023-03-04T08:31:51;98673.45;;;-1.02;100.00
34921;BME280;21128;50.016;20.002;2023-03-04T08:34:21;98688.92;;;-1.02;100.00
34921;BME280;21128;50.016;20.002;2023-03-04T08:36:49;98679.39;;;-1.00;100.00
34921;BME280;21128;50.016;20.002;2023-03-04T08:39:17;98680.14;;;-0.98;100.00
34921;BME280;21128;50.016;20.002;2023-03-04T08:41:45;98685.14;;;-0.95;100.00
34921;BME280;21128;50.016;20.002;2023-03-04T08:44:15;98688.48;;;-0.93;100.00
34921;BME280;21128;50.016;20.002;2023-03-04T08:46:43;98685.77;;;-0.90;100.00
34921;BME280;21128;50.016;20.002;2023-03-04T08:49:11;98683.95;;;-0.88;100.00
34921;BME280;21128;50.016;20.002;2023-03-04T08:51:39;98689.19;;;-0.89;100.00
34921;BME280;21128;50.016;20.002;2023-03-04T08:54:06;98687.44;;;-0.89;100.00
34921;BME280;21128;50.016;20.002;2023-03-04T08:56:33;98677.04;;;-0.87;100.00
34921;BME280;21128;50.016;20.002;2023-03-04T08:59:00;98683.73;;;-0.83;100.00
34921;BME280;21128;50.016;20.002;2023-03-04T09:01:28;98696.39;;;-0.78;100.00
34921;BME280;21128;50.016;20.002;2023-03-04T09:03:58;98690.94;;;-0.72;100.00
34921;BME280;21128;50.016;20.002;2023-03-04T09:06:28;98692.45;;;-0.68;100.00
34921;BME280;21128;50.016;20.002;2023-03-04T09:08:55;98693.81;;;-0.61;100.00
34921;BME280;21128;50.016;20.002;2023-03-04T09:11:22;98693.52;;;-0.55;100.00
34921;BME280;21128;50.016;20.002;2023-03-04T09:13:49;98689.03;;;-0.51;100.00
34921;BME280;21128;50.016;20.002;2023-03-04T09:16:17;98678.66;;;-0.50;100.00
34921;BME280;21128;50.016;20.002;2023-03-04T09:18:47;98693.23;;;-0.49;100.00
34921;BME280;21128;50.016;20.002;2023-03-04T09:21:15;98694.81;;;-0.46;100.00
34921;BME280;21128;50.016;20.002;2023-03-04T09:23:43;98696.39;;;-0.44;100.00
34921;BME280;21128;50.016;20.002;2023-03-04T09:26:17;98695.34;;;-0.40;100.00
34921;BME280;21128;50.016;20.002;2023-03-04T09:28:49;98695.92;;;-0.35;100.00
34921;BME280;21128;50.016;20.002;2023-03-04T09:31:17;98702.92;;;-0.37;100.00
34921;BME280;21128;50.016;20.002;2023-03-04T09:33:44;98697.01;;;-0.39;100.00
34921;BME280;21128;50.016;20.002;2023-03-04T09:36:13;98691.23;;;-0.44;100.00
34921;BME280;21128;50.016;20.002;2023-03-04T09:38:41;98697.22;;;-0.43;100.00
34921;BME280;21128;50.016;20.002;2023-03-04T09:41:17;98690.31;;;-0.43;100.00
34921;BME280;21128;50.016;20.002;2023-03-04T09:43:47;98693.98;;;-0.47;100.00
34921;BME280;21128;50.016;20.002;2023-03-04T09:46:31;98688.06;;;-0.49;100.00
34921;BME280;21128;50.016;20.002;2023-03-04T09:49:01;98689.73;;;-0.48;100.00
34921;BME280;21128;50.016;20.002;2023-03-04T09:51:51;98685.31;;;-0.46;100.00
34921;BME280;21128;50.016;20.002;2023-03-04T10:05:17;98680.69;;;-0.39;100.00
34921;BME280;21128;50.016;20.002;2023-03-04T10:07:53;98675.73;;;-0.44;100.00
34921;BME280;21128;50.016;20.002;2023-03-04T10:10:37;98667.08;;;-0.43;100.00
34921;BME280;21128;50.016;20.002;2023-03-04T10:13:13;98664.20;;;-0.37;100.00
34921;BME280;21128;50.016;20.002;2023-03-04T10:15:47;98660.86;;;-0.39;100.00
34921;BME280;21128;50.016;20.002;2023-03-04T10:18:27;98654.78;;;-0.38;100.00
34921;BME280;21128;50.016;20.002;2023-03-04T10:23:32;98660.61;;;-0.34;100.00
34921;BME280;21128;50.016;20.002;2023-03-04T10:26:11;98661.53;;;-0.35;100.00
34921;BME280;21128;50.016;20.002;2023-03-04T10:28:40;98644.16;;;-0.32;100.00
34921;BME280;21128;50.016;20.002;2023-03-04T10:33:38;98656.81;;;-0.27;100.00
34921;BME280;21128;50.016;20.002;2023-03-04T10:39:02;98652.34;;;-0.23;100.00
34921;BME280;21128;50.016;20.002;2023-03-04T10:41:31;98636.77;;;-0.22;100.00
34921;BME280;21128;50.016;20.002;2023-03-04T10:44:00;98641.84;;;-0.20;100.00
34921;BME280;21128;50.016;20.002;2023-03-04T10:46:29;98645.17;;;-0.18;100.00
34921;BME280;21128;50.016;20.002;2023-03-04T10:48:57;98641.62;;;-0.16;100.00
34921;BME280;21128;50.016;20.002;2023-03-04T10:51:28;98646.70;;;-0.14;100.00
34921;BME280;21128;50.016;20.002;2023-03-04T10:54:08;98650.94;;;-0.13;100.00
34921;BME280;21128;50.016;20.002;2023-03-04T11:01:59;98623.19;;;-0.10;100.00
34921;BME280;21128;50.016;20.002;2023-03-04T11:04:33;98621.53;;;-0.11;100.00
34921;BME280;21128;50.016;20.002;2023-03-04T11:07:00;98623.88;;;-0.06;100.00
34921;BME280;21128;50.016;20.002;2023-03-04T11:09:29;98612.45;;;-0.02;100.00
34921;BME280;21128;50.016;20.002;2023-03-04T11:12:01;98618.62;;;-0.05;100.00
34921;BME280;21128;50.016;20.002;2023-03-04T11:14:47;98624.45;;;-0.01;100.00
34921;BME280;21128;50.016;20.002;2023-03-04T11:22:23;98618.48;;;0.14;100.00
34921;BME280;21128;50.016;20.002;2023-03-04T11:25:26;98607.91;;;0.19;100.00
34921;BME280;21128;50.016;20.002;2023-03-04T11:28:10;98607.81;;;0.20;100.00
34921;BME280;21128;50.016;20.002;2023-03-04T11:31:02;98612.89;;;0.22;100.00
34921;BME280;21128;50.016;20.002;2023-03-04T11:38:51;98601.22;;;0.15;100.00
34921;BME280;21128;50.016;20.002;2023-03-04T11:41:32;98594.22;;;0.17;100.00
34921;BME280;21128;50.016;20.002;2023-03-04T11:44:05;98602.73;;;0.19;100.00
34921;BME280;21128;50.016;20.002;2023-03-04T12:08:20;98553.77;;;0.47;100.00
34921;BME280;21128;50.016;20.002;2023-03-04T12:10:56;98563.37;;;0.45;100.00
34921;BME280;21128;50.016;20.002;2023-03-04T12:13:41;98558.84;;;0.49;100.00
34921;BME280;21128;50.016;20.002;2023-03-04T12:16:31;98555.19;;;0.53;100.00
34921;BME280;21128;50.016;20.002;2023-03-04T12:22:26;98553.92;;;0.60;100.00
34921;BME280;21128;50.016;20.002;2023-03-04T12:25:40;98556.14;;;0.66;100.00
34921;BME280;21128;50.016;20.002;2023-03-04T12:28:41;98556.91;;;0.68;100.00
34921;BME280;21128;50.016;20.002;2023-03-04T12:31:24;98554.97;;;0.72;100.00
34921;BME280;21128;50.016;20.002;2023-03-04T12:36:37;98558.30;;;0.74;100.00
34921;BME280;21128;50.016;20.002;2023-03-04T12:39:32;98562.39;;;0.78;100.00
34921;BME280;21128;50.016;20.002;2023-03-04T12:56:24;98553.75;;;0.93;100.00
34921;BME280;21128;50.016;20.002;2023-03-04T12:58:53;98548.39;;;0.96;100.00
34921;BME280;21128;50.016;20.002;2023-03-04T13:05:30;98547.27;;;1.00;100.00
34921;BME280;21128;50.016;20.002;2023-03-04T13:07:37;98543.69;;;1.03;100.00
34921;BME280;21128;50.016;20.002;2023-03-04T13:10:14;98532.33;;;1.05;100.00
34921;BME280;21128;50.016;20.002;2023-03-04T13:17:49;98525.88;;;1.12;100.00
34921;BME280;21128;50.016;20.002;2023-03-04T13:25:41;98519.57;;;1.17;100.00
34921;BME280;21128;50.016;20.002;2023-03-04T13:31:06;98511.55;;;1.21;100.00
34921;BME280;21128;50.016;20.002;2023-03-04T13:36:07;98511.19;;;1.27;100.00
34921;BME280;21128;50.016;20.002;2023-03-04T13:39:00;98500.45;;;1.33;100.00
34921;BME280;21128;50.016;20.002;2023-03-04T13:44:01;98502.41;;;1.44;100.00
34921;BME280;21128;50.016;20.002;2023-03-04T13:46:41;98501.48;;;1.45;100.00
34921;BME280;21128;50.016;20.002;2023-03-04T13:49:20;98502.20;;;1.47;100.00
34921;BME280;21128;50.016;20.002;2023-03-04T13:51:48;98502.84;;;1.51;100.00
34921;BME280;21128;50.016;20.002;2023-03-04T13:54:24;98506.09;;;1.54;100.00
34921;BME280;21128;50.016;20.002;2023-03-04T14:01:57;98491.02;;;1.61;100.00
34921;BME280;21128;50.016;20.002;2023-03-04T14:04:34;98489.26;;;1.61;100.00
34921;BME280;21128;50.016;20.002;2023-03-04T14:12:45;98489.26;;;1.61;100.00
34921;BME280;21128;50.016;20.002;2023-03-04T14:17:49;98482.84;;;1.67;100.00
34921;BME280;21128;50.016;20.002;2023-03-04T14:23:00;98488.12;;;1.65;100.00
34921;BME280;21128;50.016;20.002;2023-03-04T14:25:29;98481.19;;;1.66;100.00
34921;BME280;21128;50.016;20.002;2023-03-04T14:30:34;98487.86;;;1.70;100.00
34921;BME280;21128;50.016;20.002;2023-03-04T14:33:06;98479.26;;;1.69;100.00
34921;BME280;21128;50.016;20.002;2023-03-04T14:35:34;98481.74;;;1.71;100.00
34921;BME280;21128;50.016;20.002;2023-03-04T14:38:05;98482.84;;;1.67;100.00
34921;BME280;21128;50.016;20.002;2023-03-04T14:40:55;98482.95;;;1.65;100.00
34921;BME280;21128;50.016;20.002;2023-03-04T14:43:27;98489.98;;;1.63;100.00
34921;BME280;21128;50.016;20.002;2023-03-04T14:45:57;98488.43;;;1.61;100.00
34921;BME280;21128;50.016;20.002;2023-03-04T14:48:33;98477.97;;;1.62;100.00
34921;BME280;21128;50.016;20.002;2023-03-04T14:51:02;98482.31;;;1.62;100.00
34921;BME280;21128;50.016;20.002;2023-03-04T14:53:31;98503.97;;;1.61;100.00
34921;BME280;21128;50.016;20.002;2023-03-04T14:56:08;98479.83;;;1.60;100.00
34921;BME280;21128;50.016;20.002;2023-03-04T14:58:38;98483.25;;;1.61;100.00